Time;durP1;ratioP1;P1;durP2;ratioP2;P2;SDS_P1;SDS_P2;PMS_P1;PMS_P2;Temp;Humidity;BMP_temperature;BMP_pressure;BME280_temperature;BME280_humidity;BME280_pressure;Samples;Min_cycle;Max_cycle;Signal;HPM_P1;HPM_P2
2022/08/22 00:00:15;;;;;;;5.87;2.87;;;23.60;47.20;;;23.94;35.05;98469.69;5021120;28;123215;-76
2022/08/22 00:03:20;;;;;;;4.53;3.00;;;23.60;47.20;;;23.88;34.86;98474.13;5026545;28;124132;-76
2022/08/22 00:05:55;;;;;;;5.30;3.00;;;23.60;47.40;;;23.87;34.99;98469.72;5028205;27;115758;-77
2022/08/22 00:08:48;;;;;;;4.80;2.57;;;23.50;47.40;;;23.84;35.12;98471.34;5011079;28;114828;-75
2022/08/22 00:11:42;;;;;;;3.67;2.70;;;23.50;47.50;;;23.81;34.99;98472.97;5015319;28;124936;-76
2022/08/22 00:14:47;;;;;;;5.30;2.83;;;23.50;47.50;;;23.78;34.88;98472.97;5019085;28;123960;-77
2022/08/22 00:17:38;;;;;;;5.80;3.57;;;23.40;47.40;;;23.73;35.05;98479.84;5025211;27;114162;-76
2022/08/22 00:20:23;;;;;;;5.33;3.23;;;23.40;47.40;;;23.67;35.23;98480.63;5013424;28;112407;-76
2022/08/22 00:23:16;;;;;;;4.47;2.77;;;23.30;47.40;;;23.62;35.13;98475.44;5022456;28;124578;-76
2022/08/22 00:25:54;;;;;;;6.63;3.33;;;23.30;47.50;;;23.53;35.13;98473.03;5010150;28;123864;-76
2022/08/22 00:28:35;;;;;;;4.13;2.77;;;23.10;47.40;;;23.48;35.26;98470.63;5008885;28;114289;-76
2022/08/22 00:31:20;;;;;;;5.10;2.87;;;23.10;47.60;;;23.44;35.28;98464.19;5026656;28;113930;-76
2022/08/22 00:34:21;;;;;;;4.83;2.50;;;23.10;47.80;;;23.43;35.45;98463.41;5021078;27;124009;-77
2022/08/22 00:37:01;;;;;;;3.67;2.60;;;23.00;47.90;;;23.44;35.41;98467.03;5010445;28;124082;-76
2022/08/22 00:40:08;;;;;;;2.47;2.27;;;23.10;48.00;;;23.42;35.49;98460.97;5013373;28;114779;-76
2022/08/22 00:43:09;;;;;;;4.10;2.83;;;23.00;48.00;;;23.38;35.59;98456.16;5009092;27;113874;-76
2022/08/22 00:46:02;;;;;;;5.00;2.80;;;23.00;48.00;;;23.40;35.71;98460.56;5018991;28;123903;-76
2022/08/22 00:49:01;;;;;;;4.63;2.90;;;23.00;48.10;;;23.39;35.52;98456.94;5012481;28;123909;-76
2022/08/22 00:51:45;;;;;;;5.90;2.47;;;23.00;48.20;;;23.37;35.78;98459.38;5015471;28;113336;-77
2022/08/22 00:54:20;;;;;;;7.40;2.70;;;23.00;48.20;;;23.36;35.77;98455.75;5012952;28;114254;-76
2022/08/22 00:57:23;;;;;;;4.80;3.60;;;23.00;48.30;;;23.34;35.68;98455.34;5017124;28;124138;-76
2022/08/22 01:00:08;;;;;;;3.80;2.90;;;23.00;48.30;;;23.30;35.81;98454.56;5009766;28;123817;-75
2022/08/22 01:03:01;;;;;;;7.33;3.00;;;22.90;48.20;;;23.27;35.78;98449.75;5013713;28;115374;-76
2022/08/22 01:05:57;;;;;;;5.40;3.23;;;22.90;48.30;;;23.22;35.89;98452.97;5014521;28;114995;-76
2022/08/22 01:09:24;;;;;;;5.60;3.20;;;22.90;48.40;;;23.17;35.95;98450.56;5015587;28;122586;-76
2022/08/22 01:12:06;;;;;;;3.60;2.50;;;22.90;48.60;;;23.17;36.05;98455.41;5025035;27;123665;-75
2022/08/22 01:14:32;;;;;;;4.67;3.07;;;22.80;48.70;;;23.14;36.39;98457.03;5015551;28;114324;-76
2022/08/22 01:17:07;;;;;;;5.03;2.60;;;22.80;48.90;;;23.13;36.41;98455.41;5030497;28;114159;-76
2022/08/22 01:20:22;;;;;;;4.10;2.63;;;22.80;49.20;;;23.08;36.57;98455.84;5018341;28;124507;-76
2022/08/22 01:23:13;;;;;;;6.07;3.13;;;22.70;49.40;;;23.05;36.51;98457.44;5032829;28;123062;-76
2022/08/22 01:26:18;;;;;;;6.40;2.80;;;22.70;49.40;;;23.00;36.72;98445.75;5033403;28;114149;-79
2022/08/22 01:29:50;;;;;;;5.10;2.77;;;22.70;49.50;;;22.92;36.81;98448.56;5022033;28;114049;-75
2022/08/22 01:33:24;;;;;;;4.90;2.90;;;22.70;49.70;;;22.87;36.97;98453.81;5017362;28;123383;-77
2022/08/22 01:36:37;;;;;;;5.70;3.07;;;22.50;49.60;;;22.85;36.72;98448.56;5020100;28;123040;-78
2022/08/22 01:39:30;;;;;;;5.30;3.23;;;22.50;49.70;;;22.84;37.17;98444.16;5007276;28;114579;-79
2022/08/22 01:42:23;;;;;;;4.70;3.27;;;22.50;49.90;;;22.83;37.27;98450.97;5023059;27;114637;-77
2022/08/22 01:45:10;;;;;;;5.90;3.30;;;22.40;50.10;;;22.81;37.48;98453.41;5023095;28;124166;-75
2022/08/22 01:47:55;;;;;;;3.87;3.10;;;22.40;50.40;;;22.80;37.95;98456.63;5015864;28;123915;-79
2022/08/22 01:50:29;;;;;;;4.60;2.30;;;22.50;50.80;;;22.79;37.93;98453.00;5021873;27;114237;-76
2022/08/22 01:53:07;;;;;;;5.07;2.80;;;22.40;50.80;;;22.75;37.99;98455.00;5019299;28;114192;-75
2022/08/22 01:55:45;;;;;;;4.90;2.97;;;22.40;51.10;;;22.72;37.87;98458.63;5031459;27;124156;-76
2022/08/22 01:58:30;;;;;;;8.20;3.40;;;22.30;51.20;;;22.70;38.34;98463.84;5012405;28;123597;-75
2022/08/22 02:01:33;;;;;;;7.77;3.63;;;22.30;51.40;;;22.66;38.14;98457.44;5016753;28;115298;-75
2022/08/22 02:04:54;;;;;;;5.83;2.97;;;22.30;51.60;;;22.60;38.48;98459.84;5019954;28;114816;-77
2022/08/22 02:07:52;;;;;;;5.07;3.20;;;22.30;51.70;;;22.57;38.30;98451.38;5010565;28;123652;-78
2022/08/22 02:10:56;;;;;;;4.47;3.07;;;22.20;51.80;;;22.54;38.59;98458.63;5025565;28;124262;-77
2022/08/22 02:13:31;;;;;;;5.53;3.30;;;22.20;51.70;;;22.54;38.24;98460.63;5041389;28;114433;-76
2022/08/22 02:16:17;;;;;;;5.00;3.60;;;22.20;51.70;;;22.52;38.41;98460.25;5028697;28;114545;-76
2022/08/22 02:19:12;;;;;;;4.17;3.20;;;22.10;51.70;;;22.41;39.02;98458.22;5028594;27;124014;-76
2022/08/22 02:22:13;;;;;;;6.60;2.80;;;22.00;52.70;;;22.31;39.64;98456.19;5021213;28;124240;-78
2022/08/22 02:24:48;;;;;;;5.60;3.00;;;21.90;53.40;;;22.21;40.89;98459.78;5031215;28;112080;-76
2022/08/22 02:27:56;;;;;;;7.17;3.47;;;21.80;54.40;;;22.10;41.39;98453.31;5009148;28;113010;-75
2022/08/22 02:30:59;;;;;;;4.23;3.17;;;21.70;55.70;;;21.98;41.88;98460.91;5010207;28;124042;-76
2022/08/22 02:33:42;;;;;;;3.77;2.70;;;21.60;55.80;;;21.96;42.11;98457.69;4999349;28;123943;-77
2022/08/22 02:36:47;;;;;;;5.30;3.27;;;21.60;56.10;;;21.94;41.97;98459.28;5012892;28;114196;-77
2022/08/22 02:39:43;;;;;;;5.13;3.43;;;21.60;56.50;;;21.95;42.29;98456.09;4984171;28;114427;-76
2022/08/22 02:42:15;;;;;;;6.37;3.27;;;21.50;56.70;;;21.96;42.51;98463.31;4981272;28;125115;-77
2022/08/22 02:44:51;;;;;;;4.20;3.10;;;21.60;57.00;;;21.97;42.58;98458.47;4980258;28;123892;-80
2022/08/22 02:47:29;;;;;;;5.80;3.50;;;21.60;57.20;;;21.96;43.08;98451.25;4975415;28;114284;-76
2022/08/22 02:50:17;;;;;;;7.00;3.97;;;21.50;57.40;;;21.87;43.12;98443.19;4991997;28;113861;-76
2022/08/22 02:52:46;;;;;;;4.40;3.20;;;21.50;58.00;;;21.79;43.21;98450.81;4960642;28;124327;-76
2022/08/22 02:55:34;;;;;;;7.10;3.40;;;21.40;58.10;;;21.75;43.60;98444.34;4984800;28;123567;-76
2022/08/22 02:58:58;;;;;;;4.13;3.00;;;21.40;58.50;;;21.71;43.70;98448.34;4988040;28;115367;-76
2022/08/22 03:01:40;;;;;;;4.47;3.20;;;21.30;58.70;;;21.69;43.66;98447.94;4976562;28;114817;-79
2022/08/22 03:04:41;;;;;;;6.00;3.63;;;21.30;58.90;;;21.61;44.13;98447.91;4987632;28;125213;-77
2022/08/22 03:07:24;;;;;;;6.10;3.83;;;21.30;59.40;;;21.59;44.17;98453.13;4986599;28;124001;-76
2022/08/22 03:10:29;;;;;;;6.93;3.50;;;21.20;59.50;;;21.54;44.17;98447.88;4969323;28;114561;-75
2022/08/22 03:13:17;;;;;;;5.67;3.50;;;21.20;59.90;;;21.54;44.47;98441.44;4959746;28;112711;-75
2022/08/22 03:15:54;;;;;;;4.20;3.57;;;21.20;60.20;;;21.53;44.75;98440.66;4984718;28;124129;-77
2022/08/22 03:18:44;;;;;;;5.73;3.43;;;21.10;60.20;;;21.52;44.30;98444.66;5021480;27;124283;-77
2022/08/22 03:21:26;;;;;;;3.77;3.03;;;21.20;60.60;;;21.51;44.89;98443.03;5019086;28;114242;-76
2022/08/22 03:24:17;;;;;;;5.43;3.40;;;21.20;60.70;;;21.51;44.94;98443.03;5019154;28;112171;-76
2022/08/22 03:27:05;;;;;;;7.40;4.10;;;21.10;60.80;;;21.50;45.12;98444.25;4999737;28;123184;-76
2022/08/22 03:29:37;;;;;;;3.90;3.20;;;21.10;61.00;;;21.47;45.16;98442.22;5015517;28;123937;-77
2022/08/22 03:32:18;;;;;;;5.87;3.33;;;21.10;61.30;;;21.47;45.07;98442.22;5017183;28;113953;-78
2022/08/22 03:35:08;;;;;;;5.63;3.60;;;21.10;61.50;;;21.48;45.00;98445.84;5006640;28;114051;-77
2022/08/22 03:37:34;;;;;;;5.07;3.83;;;21.10;61.70;;;21.47;44.95;98450.66;5012240;28;124021;-78
2022/08/22 03:40:45;;;;;;;6.00;3.77;;;21.10;61.80;;;21.41;45.15;98443.78;5010849;28;123923;-76
2022/08/22 03:44:08;;;;;;;4.73;3.37;;;21.10;62.50;;;21.29;45.41;98449.72;5031066;27;114189;-76
2022/08/22 03:47:05;;;;;;;4.60;3.60;;;20.90;62.60;;;21.18;45.71;98439.22;5007849;28;114531;-79
2022/08/22 03:49:56;;;;;;;4.93;3.57;;;20.80;63.30;;;21.07;46.02;98440.38;5014119;27;124176;-77
2022/08/22 03:53:08;;;;;;;6.40;4.10;;;20.70;63.90;;;21.01;46.06;98444.72;5024139;27;122921;-79
2022/08/22 03:56:11;;;;;;;5.93;3.70;;;20.60;64.10;;;20.98;46.44;98437.88;5015401;28;115522;-77
2022/08/22 03:59:12;;;;;;;4.93;3.40;;;20.60;64.30;;;20.96;46.30;98446.72;5031124;27;115109;-78
2022/08/22 04:01:46;;;;;;;6.60;3.87;;;20.60;64.50;;;21.00;46.47;98448.75;5027803;28;124105;-77
2022/08/22 04:04:34;;;;;;;6.10;3.77;;;20.60;64.60;;;20.99;46.67;98462.00;5031262;28;123860;-76
2022/08/22 04:07:14;;;;;;;5.90;3.50;;;20.60;65.00;;;20.98;46.56;98459.56;5015909;28;113571;-76
2022/08/22 04:10:24;;;;;;;7.50;3.73;;;20.60;65.20;;;20.93;46.59;98455.13;5024840;28;114238;-76
2022/08/22 04:13:32;;;;;;;5.50;3.20;;;20.60;65.40;;;20.92;46.71;98465.53;5018757;28;123527;-76
2022/08/22 04:16:13;;;;;;;5.23;3.17;;;20.60;65.50;;;20.93;46.71;98474.78;5024926;27;124175;-76
2022/08/22 04:19:37;;;;;;;5.53;3.30;;;20.50;65.70;;;20.87;47.01;98467.91;5009905;28;114128;-76
2022/08/22 04:22:32;;;;;;;5.70;3.90;;;20.50;66.00;;;20.85;46.90;98470.31;5004073;27;114268;-79
2022/08/22 04:25:25;;;;;;;8.03;4.23;;;20.50;66.20;;;20.84;47.17;98471.50;5029077;28;124503;-76
2022/08/22 04:28:04;;;;;;;8.40;3.50;;;20.40;66.40;;;20.83;47.37;98469.91;5026806;27;123318;-80
2022/08/22 04:30:43;;;;;;;3.50;2.70;;;20.40;66.70;;;20.81;47.16;98472.28;4997854;28;113519;-77
2022/08/22 04:33:25;;;;;;;3.63;2.93;;;20.40;67.00;;;20.82;47.12;98473.88;5024004;28;114791;-77
2022/08/22 04:36:49;;;;;;;5.80;3.60;;;20.40;67.30;;;20.80;47.25;98473.50;5018529;28;124377;-79
2022/08/22 04:39:55;;;;;;;4.53;3.30;;;20.40;67.50;;;20.78;47.05;98473.06;5039042;28;123711;-78
2022/08/22 04:42:35;;;;;;;4.40;3.53;;;20.40;67.40;;;20.78;46.93;98484.28;5039376;27;115062;-77
2022/08/22 04:45:09;;;;;;;10.63;3.70;;;20.40;67.30;;;20.80;46.53;98481.91;5025446;28;112658;-77
2022/08/22 04:47:41;;;;;;;10.50;3.70;;;20.40;67.10;;;20.82;46.85;98468.25;5015939;28;126783;-77
2022/08/22 04:50:38;;;;;;;8.73;3.80;;;20.40;67.10;;;20.82;46.75;98485.09;5022390;27;123252;-78
2022/08/22 04:54:02;;;;;;;6.70;3.80;;;20.40;67.40;;;20.82;47.12;98485.09;5018869;28;115044;-77
2022/08/22 04:57:09;;;;;;;7.53;3.93;;;20.40;67.80;;;20.80;47.33;98481.91;4997723;27;115807;-78
2022/08/22 04:59:36;;;;;;;6.67;3.43;;;20.40;68.20;;;20.79;47.27;98492.31;5028690;28;123474;-77
2022/08/22 05:02:08;;;;;;;5.87;3.30;;;20.40;68.30;;;20.78;47.52;98493.50;5020563;28;123846;-77
2022/08/22 05:04:44;;;;;;;6.43;4.23;;;20.40;68.60;;;20.78;47.82;98490.72;5010089;28;114174;-77
2022/08/22 05:07:23;;;;;;;7.43;3.97;;;20.30;68.80;;;20.76;47.50;98498.72;5013435;28;113260;-76
2022/08/22 05:10:08;;;;;;;7.30;4.13;;;20.30;69.00;;;20.75;47.54;98497.09;5014670;28;124029;-77
2022/08/22 05:12:48;;;;;;;5.20;3.60;;;20.30;69.20;;;20.74;47.55;98501.91;5014105;28;123963;-77
2022/08/22 05:15:36;;;;;;;4.90;3.73;;;20.30;69.40;;;20.73;47.84;98507.91;5017883;28;114172;-76
2022/08/22 05:18:17;;;;;;;8.57;4.00;;;20.30;69.50;;;20.74;47.62;98501.13;5011879;28;113949;-77
2022/08/22 05:20:47;;;;;;;8.60;5.30;;;20.30;69.70;;;20.70;47.61;98503.88;5007554;28;123577;-76
2022/08/22 05:23:27;;;;;;;15.13;3.63;;;20.20;69.80;;;20.70;47.62;98506.69;5009995;28;124066;-77
2022/08/22 05:26:00;;;;;;;9.03;3.93;;;20.20;70.00;;;20.70;47.77;98506.69;5015079;28;115075;-76
2022/08/22 05:28:49;;;;;;;7.00;3.80;;;20.20;70.00;;;20.70;47.43;98501.06;5007558;28;114051;-76
2022/08/22 05:31:25;;;;;;;9.50;4.23;;;20.20;70.10;;;20.72;47.69;98509.13;5013473;28;123803;-76
2022/08/22 05:34:03;;;;;;;7.57;3.50;;;20.20;70.00;;;20.77;47.61;98499.50;5010849;28;123668;-76
2022/08/22 05:36:40;;;;;;;8.93;4.00;;;20.30;70.10;;;20.81;47.65;98505.97;5019727;28;112024;-77
2022/08/22 05:39:21;;;;;;;6.27;4.30;;;20.30;70.10;;;20.87;47.56;98498.78;5022278;28;114342;-77
2022/08/22 05:41:49;;;;;;;11.37;4.50;;;20.40;70.30;;;20.86;47.54;98511.22;5018337;27;123718;-77
2022/08/22 05:44:26;;;;;;;9.60;4.07;;;20.40;70.10;;;20.85;47.06;98506.81;5013867;28;123846;-77
2022/08/22 05:47:01;;;;;;;5.93;4.03;;;20.30;69.80;;;20.85;47.51;98506.81;5017974;27;114739;-88
2022/08/22 05:49:37;;;;;;;6.83;4.23;;;20.30;70.00;;;20.91;47.46;98505.25;5021620;27;116307;-81
2022/08/22 05:52:23;;;;;;;5.40;3.73;;;20.40;70.40;;;21.03;47.13;98502.13;5018204;27;124736;-78
2022/08/22 05:55:18;;;;;;;7.80;4.13;;;20.40;70.30;;;21.12;46.79;98511.03;5015784;28;124087;-79
2022/08/22 05:57:52;;;;;;;5.33;3.77;;;20.50;69.90;;;21.27;46.82;98499.91;5012176;28;114350;-83
2022/08/22 06:00:24;;;;;;;7.40;4.10;;;20.60;70.50;;;21.40;46.76;98495.59;5010065;28;113760;-80
2022/08/22 06:03:24;;;;;;;8.03;4.00;;;20.70;70.10;;;21.48;46.09;98500.06;5015762;28;124004;-79
2022/08/22 06:05:55;;;;;;;6.77;3.97;;;20.80;69.60;;;21.55;46.12;98502.91;5010362;28;123194;-79
2022/08/22 06:08:42;;;;;;;6.17;4.43;;;20.90;69.60;;;21.65;46.14;98498.53;5016249;28;114074;-80
2022/08/22 06:11:47;;;;;;;6.57;3.90;;;21.00;69.50;;;21.73;45.71;98505.00;5008203;28;113493;-83
2022/08/22 06:14:50;;;;;;;8.40;5.10;;;21.10;69.00;;;21.80;45.35;98505.03;5013516;28;123682;-81
2022/08/22 06:17:27;;;;;;;8.27;4.60;;;21.10;68.70;;;21.91;45.47;98505.88;5018785;28;125111;-85
2022/08/22 06:19:54;;;;;;;6.60;4.10;;;21.20;68.80;;;22.04;45.17;98503.53;5019888;28;114292;-87
2022/08/22 06:22:26;;;;;;;7.27;4.10;;;21.30;68.60;;;22.15;45.19;98503.56;5011020;28;113749;-85
2022/08/22 06:24:55;;;;;;;6.73;4.13;;;21.40;68.40;;;22.24;44.69;98506.81;5006382;28;122633;-86
2022/08/22 06:27:27;;;;;;;9.13;4.07;;;21.50;68.00;;;22.33;44.39;98504.44;5024749;27;124421;-79
2022/08/22 06:30:00;;;;;;;5.50;3.80;;;21.60;67.90;;;22.45;44.01;98509.69;5020112;28;114264;-77
2022/08/22 06:32:40;;;;;;;6.77;4.30;;;21.70;67.30;;;22.54;43.74;98502.84;5019558;28;113936;-80
2022/08/22 06:35:24;;;;;;;7.40;4.60;;;21.80;66.90;;;22.65;43.65;98512.94;5013598;28;124276;-86
2022/08/22 06:37:57;;;;;;;7.80;4.00;;;21.90;66.80;;;22.77;43.10;98514.56;5009550;28;123442;-87
2022/08/22 06:40:27;;;;;;;7.30;4.50;;;22.00;66.20;;;22.84;43.08;98506.13;5022836;28;115283;-87
2022/08/22 06:42:54;;;;;;;11.17;3.73;;;22.10;66.00;;;22.89;43.03;98502.91;5021016;27;115128;-85
2022/08/22 06:45:27;;;;;;;7.20;4.40;;;22.10;65.80;;;22.97;42.95;98502.91;5009527;27;123701;-81
2022/08/22 06:48:17;;;;;;;7.27;4.63;;;22.20;65.80;;;23.04;42.63;98500.09;5008226;28;123876;-85
2022/08/22 06:50:49;;;;;;;6.73;3.80;;;22.30;65.30;;;23.12;42.74;98504.53;5031512;27;113701;-86
2022/08/22 06:53:45;;;;;;;8.80;4.47;;;22.30;65.30;;;23.21;42.38;98509.75;5029398;27;115204;-87
2022/08/22 06:56:12;;;;;;;9.67;4.70;;;22.40;64.80;;;23.27;42.17;98517.41;5006529;28;124235;-83
2022/08/22 06:58:43;;;;;;;9.70;4.43;;;22.50;64.60;;;23.33;42.09;98501.69;5027650;27;124294;-80
2022/08/22 07:01:31;;;;;;;5.30;3.90;;;22.60;64.20;;;23.35;42.24;98507.72;5016030;28;113774;-82
2022/08/22 07:04:09;;;;;;;12.50;4.00;;;22.60;64.40;;;23.45;42.17;98517.34;5030004;27;113446;-79
2022/08/22 07:06:42;;;;;;;9.50;4.77;;;22.70;65.10;;;23.51;41.85;98521.38;5013691;28;124234;-80
2022/08/22 07:09:26;;;;;;;10.77;3.87;;;22.80;63.70;;;23.57;41.18;98524.59;5024941;28;123779;-79
2022/08/22 07:11:57;;;;;;;9.83;4.80;;;22.80;63.40;;;23.63;40.79;98524.97;5042966;27;114317;-77
2022/08/22 07:14:31;;;;;;;6.80;4.50;;;22.90;62.60;;;23.65;40.70;98516.94;5015658;28;114261;-77
2022/08/22 07:17:06;;;;;;;7.93;4.00;;;22.90;62.30;;;23.69;40.41;98521.31;5026731;27;122386;-76
2022/08/22 07:19:55;;;;;;;7.77;4.03;;;23.00;62.10;;;23.74;40.50;98518.13;5017454;28;124045;-77
2022/08/22 07:22:28;;;;;;;8.00;3.80;;;23.00;61.80;;;23.79;40.32;98514.09;5014366;28;114316;-77
2022/08/22 07:25:12;;;;;;;4.23;2.97;;;23.90;62.40;;;23.86;40.13;98507.59;5014504;28;113947;-78
2022/08/22 07:28:12;;;;;;;4.77;3.30;;;23.10;61.20;;;23.87;40.19;98514.88;4999288;28;124157;-78
2022/08/22 07:31:00;;;;;;;6.73;3.63;;;23.20;61.00;;;23.93;39.99;98510.41;5010147;28;123860;-78
2022/08/22 07:33:46;;;;;;;4.57;3.50;;;23.20;60.90;;;23.97;39.90;98511.19;5006591;28;115473;-81
2022/08/22 07:37:07;;;;;;;5.47;2.90;;;23.30;60.70;;;24.06;39.80;98513.56;4998870;28;113993;-82
2022/08/22 07:40:02;;;;;;;2.83;2.43;;;23.40;60.50;;;24.13;39.28;98511.53;5006213;28;126403;-78
2022/08/22 07:42:43;;;;;;;4.80;2.83;;;23.40;59.80;;;24.16;39.02;98518.38;5012375;28;122820;-82
2022/08/22 07:45:15;;;;;;;4.53;3.00;;;23.50;59.50;;;24.20;38.96;98503.00;5011755;28;114268;-79
2022/08/22 07:48:09;;;;;;;3.57;2.30;;;23.50;59.20;;;24.28;38.50;98519.91;5014567;28;114061;-80
2022/08/22 07:50:48;;;;;;;4.60;2.63;;;23.60;59.00;;;24.35;38.65;98517.06;5006751;27;124475;-76
2022/08/22 07:53:48;;;;;;;4.93;3.00;;;23.60;58.80;;;24.40;38.67;98525.91;5021332;27;123837;-77
2022/08/22 07:56:26;;;;;;;5.00;3.30;;;23.70;58.70;;;24.50;38.46;98512.94;5009853;28;114254;-78
2022/08/22 07:59:16;;;;;;;5.30;3.60;;;23.70;58.80;;;24.59;38.27;98516.13;5022809;28;113762;-80
2022/08/22 08:01:52;;;;;;;4.70;2.73;;;23.80;58.40;;;24.63;38.61;98518.91;5013090;28;124570;-79
2022/08/22 08:04:24;;;;;;;3.33;3.03;;;23.90;58.40;;;24.66;38.40;98521.75;5010387;27;123009;-80
2022/08/22 08:06:55;;;;;;;5.50;2.93;;;23.90;58.40;;;24.74;38.20;98522.47;5005297;28;112898;-77
2022/08/22 08:09:32;;;;;;;3.80;2.67;;;24.00;58.10;;;24.80;38.30;98531.34;5020467;28;114464;-80
2022/08/22 08:12:01;;;;;;;5.53;2.63;;;24.00;58.00;;;24.83;37.95;98525.66;5013510;28;124066;-77
2022/08/22 08:14:28;;;;;;;4.43;2.90;;;24.10;58.00;;;24.89;38.05;98523.97;5018134;28;124357;-78
2022/08/22 08:17:08;;;;;;;4.07;3.03;;;24.20;58.00;;;24.95;37.90;98524.31;5012372;27;114169;-76
2022/08/22 08:19:40;;;;;;;4.80;2.90;;;24.20;57.90;;;25.03;37.77;98523.03;5017809;28;114071;-79
2022/08/22 08:22:15;;;;;;;3.70;2.87;;;24.30;57.90;;;25.08;38.10;98528.25;5006100;28;124158;-75
2022/08/22 08:24:43;;;;;;;5.97;3.30;;;24.30;57.80;;;25.13;37.67;98530.63;5006782;28;124310;-79
2022/08/22 08:30:15;;;;;;;7.63;3.17;;;24.50;57.40;;;25.21;37.46;98520.09;5027239;28;115786;-78
2022/08/22 08:32:49;;;;;;;4.60;3.00;;;24.50;57.20;;;25.28;37.32;98522.03;5009258;28;124121;-81
2022/08/22 08:35:19;;;;;;;7.93;3.17;;;24.60;57.30;;;25.31;37.26;98515.59;5009698;28;123760;-76
2022/08/22 08:38:18;;;;;;;3.47;2.70;;;24.70;57.00;;;25.31;37.54;98512.75;5046774;27;113760;-80
2022/08/22 08:41:45;;;;;;;3.90;3.17;;;24.70;56.80;;;25.25;37.68;98520.84;5022230;27;114168;-79
2022/08/22 08:45:05;;;;;;;5.17;3.37;;;24.70;57.30;;;25.27;37.89;98532.56;5031734;27;124128;-77
2022/08/22 08:48:09;;;;;;;4.07;3.10;;;24.70;57.70;;;25.35;38.34;98522.00;5045296;27;123859;-79
2022/08/22 08:50:54;;;;;;;6.23;3.60;;;24.70;57.90;;;25.44;38.18;98522.31;5045177;27;114337;-77
2022/08/22 08:54:20;;;;;;;4.50;3.60;;;24.80;58.20;;;25.48;38.09;98514.59;5031456;27;114430;-80
2022/08/22 08:57:16;;;;;;;5.87;2.93;;;24.90;58.40;;;25.56;38.73;98513.28;4986429;28;123734;-80
2022/08/22 09:00:08;;;;;;;6.43;4.20;;;24.90;59.00;;;25.61;38.43;98502.75;4983552;28;123778;-77
2022/08/22 09:02:55;;;;;;;5.97;3.43;;;25.00;58.40;;;25.67;38.53;98504.69;5036311;27;114554;-81
2022/08/22 09:06:25;;;;;;;5.33;3.90;;;25.10;58.40;;;25.74;38.64;98498.16;5045786;27;114019;-79
2022/08/22 09:09:11;;;;;;;6.80;4.10;;;25.10;58.40;;;25.82;38.61;98513.81;4993769;28;124437;-81
2022/08/22 09:12:35;;;;;;;4.67;3.20;;;25.20;58.40;;;25.84;38.55;98497.22;5029296;28;122615;-79
2022/08/22 09:15:10;;;;;;;5.13;3.63;;;25.20;58.50;;;25.86;38.68;98494.78;5001065;28;113385;-78
2022/08/22 09:17:48;;;;;;;4.10;3.20;;;25.20;58.50;;;25.93;38.66;98500.38;5023440;28;113971;-79
2022/08/22 09:20:23;;;;;;;11.17;3.83;;;25.30;58.60;;;25.99;38.26;98495.03;5024525;27;124209;-77
2022/08/22 09:23:25;;;;;;;5.10;3.50;;;25.40;58.50;;;26.02;38.10;98502.69;5013399;28;123423;-77
2022/08/22 09:26:21;;;;;;;5.37;3.37;;;25.40;58.30;;;26.08;38.17;98488.84;5008626;28;115275;-82
2022/08/22 09:29:10;;;;;;;4.23;3.67;;;25.50;58.10;;;26.14;38.54;98492.81;5017406;28;115085;-79
2022/08/22 09:32:05;;;;;;;6.07;3.47;;;25.50;58.30;;;26.17;38.17;98489.94;5008253;28;123066;-79
2022/08/22 09:35:00;;;;;;;6.40;4.43;;;25.60;58.30;;;26.26;38.48;98499.94;5023670;28;122903;-78
2022/08/22 09:37:59;;;;;;;7.17;4.10;;;25.70;58.20;;;26.29;38.33;98490.59;5010662;28;113201;-77
2022/08/22 09:41:03;;;;;;;4.20;3.80;;;25.70;58.80;;;26.35;38.18;98492.50;5011379;28;113983;-80
2022/08/22 09:43:45;;;;;;;5.93;3.80;;;25.80;57.90;;;26.40;37.47;98494.06;5002965;28;124297;-78
2022/08/22 09:46:21;;;;;;;4.13;3.43;;;25.80;57.40;;;26.47;37.47;98487.50;5016042;28;123457;-77
2022/08/22 09:49:19;;;;;;;4.50;3.60;;;25.90;57.10;;;26.52;37.67;98493.53;5008087;28;114239;-78
2022/08/22 09:51:54;;;;;;;5.20;3.30;;;25.90;56.90;;;26.58;37.28;98488.97;5021771;27;113725;-78
2022/08/22 09:54:23;;;;;;;8.30;4.23;;;26.00;56.60;;;26.65;36.67;98505.88;5015164;28;123365;-79
2022/08/22 09:57:42;;;;;;;7.53;3.63;;;26.00;56.30;;;26.71;36.69;98488.38;5013837;28;123663;-76
2022/08/22 10:00:22;;;;;;;4.17;3.30;;;26.10;56.30;;;26.76;37.33;98491.53;5013896;28;114312;-81
2022/08/22 10:03:08;;;;;;;6.13;3.50;;;26.20;56.60;;;26.81;36.94;98491.06;5012717;28;114081;-77
2022/08/22 10:05:55;;;;;;;4.83;3.70;;;26.20;56.60;;;26.88;37.18;98504.28;5014240;27;123853;-77
2022/08/22 10:08:33;;;;;;;4.77;3.90;;;26.30;56.40;;;26.94;36.45;98496.09;5018042;28;123525;-76
2022/08/22 10:11:12;;;;;;;7.33;4.13;;;26.30;55.90;;;27.00;36.13;98489.53;5014445;28;114648;-77
2022/08/22 10:13:58;;;;;;;4.70;3.70;;;26.40;55.70;;;27.03;36.26;98491.50;5024031;28;113818;-77
2022/08/22 10:17:17;;;;;;;3.70;3.30;;;26.50;55.20;;;27.07;35.28;98491.41;5033808;27;124158;-82
2022/08/22 10:20:20;;;;;;;5.53;3.83;;;26.60;54.20;;;27.11;35.03;98486.50;5016551;27;123741;-79
2022/08/22 10:23:33;;;;;;;3.40;2.80;;;26.60;53.60;;;27.15;34.63;98481.56;5001403;28;115170;-76
2022/08/22 10:26:46;;;;;;;4.83;3.30;;;26.60;52.70;;;27.18;34.40;98480.72;5020358;27;115310;-79
2022/08/22 10:29:59;;;;;;;5.50;3.60;;;26.70;52.00;;;27.24;33.70;98473.31;5017748;28;124085;-77
2022/08/22 10:32:50;;;;;;;4.13;2.90;;;26.70;51.10;;;27.31;33.65;98470.34;5013673;28;123552;-77
2022/08/22 10:35:37;;;;;;;3.70;3.13;;;26.80;50.90;;;27.42;33.17;98466.50;5015177;28;114005;-77
2022/08/22 10:38:19;;;;;;;3.23;2.80;;;26.90;50.30;;;27.49;32.84;98469.22;5011526;28;113974;-77
2022/08/22 10:41:02;;;;;;;4.50;2.80;;;27.00;50.20;;;27.60;32.50;98471.84;5007429;28;123395;-77
2022/08/22 10:43:37;;;;;;;4.53;2.97;;;27.00;49.50;;;27.67;32.70;98464.00;5015853;28;123066;-77
2022/08/22 10:46:14;;;;;;;3.83;2.50;;;27.10;49.40;;;27.74;32.11;98458.16;5012645;28;114049;-77
2022/08/22 10:49:11;;;;;;;4.03;3.17;;;27.20;48.90;;;27.81;32.35;98464.94;5023610;28;114674;-77
2022/08/22 10:52:03;;;;;;;5.50;3.37;;;27.30;49.00;;;27.93;31.80;98458.59;5011180;27;124003;-77
2022/08/22 10:54:57;;;;;;;5.80;3.27;;;27.40;48.50;;;27.99;31.04;98448.31;5017635;27;123608;-78
2022/08/22 10:57:52;;;;;;;6.00;3.40;;;27.40;47.10;;;28.04;30.62;98447.81;5021878;28;114783;-75
2022/08/22 11:00:50;;;;;;;7.03;3.17;;;27.50;46.60;;;28.08;30.94;98439.22;5013687;28;115398;-78
2022/08/22 11:03:51;;;;;;;6.47;3.40;;;27.50;46.50;;;28.16;30.15;98438.63;5009929;28;123934;-77
2022/08/22 11:06:28;;;;;;;4.40;3.27;;;27.60;45.80;;;28.26;30.48;98433.13;5007168;28;125136;-77
2022/08/22 11:09:14;;;;;;;5.60;3.40;;;27.60;45.90;;;28.37;30.57;98433.66;5010651;28;114224;-77
2022/08/22 11:11:49;;;;;;;3.30;2.80;;;27.80;46.50;;;28.47;30.16;98437.53;5022434;28;113340;-77
2022/08/22 11:15:00;;;;;;;7.23;3.33;;;27.90;46.00;;;28.52;29.71;98429.28;5015088;28;124109;-76
2022/08/22 11:18:03;;;;;;;6.73;3.73;;;28.00;45.20;;;28.58;29.67;98432.41;5010386;27;123044;-76
2022/08/22 11:20:58;;;;;;;4.33;2.63;;;28.10;44.90;;;28.63;29.12;98429.81;4996683;28;114265;-76
2022/08/22 11:23:52;;;;;;;5.03;3.17;;;28.10;43.70;;;28.71;29.77;98423.97;5014736;28;117182;-75
2022/08/22 11:26:40;;;;;;;5.37;3.57;;;28.20;44.90;;;28.72;30.50;98426.38;5007376;28;124374;-76
2022/08/22 11:29:19;;;;;;;4.73;3.13;;;28.20;45.90;;;28.74;30.75;98418.19;5009748;28;123374;-77
2022/08/22 11:31:58;;;;;;;5.87;3.90;;;28.20;46.30;;;28.77;30.69;98422.19;5020693;28;114249;-76
2022/08/22 11:34:46;;;;;;;4.40;3.37;;;28.30;46.10;;;28.79;30.21;98416.84;5010689;28;113083;-77
2022/08/22 11:37:32;;;;;;;7.67;3.43;;;28.30;45.90;;;28.77;29.66;98417.28;5005105;28;123330;-76
2022/08/22 11:40:39;;;;;;;5.77;3.93;;;28.30;45.70;;;28.71;29.57;98418.28;5000526;28;121834;-77
2022/08/22 11:43:26;;;;;;;5.93;3.40;;;28.30;44.30;;;28.74;29.65;98415.34;5023597;28;113629;-78